METAR Data
IDs: Format: Raw Decoded Include TAF

Data at: 2052 UTC 19 May 2019

KCKP 192035Z AUTO 33010G19KT 4SM BR SCT015 BKN027 OVC033 10/08 A2983 RMK AO2 T00950081
KCKP 192015Z AUTO 31007G17KT 7SM SCT015 BKN025 OVC033 10/08 A2983 RMK AO2 T00950081
KCKP 191955Z AUTO 32006KT 10SM SCT015 BKN023 OVC044 10/09 A2982 RMK AO2 T00960086
KCKP 191935Z AUTO 31008KT 5SM BR SCT015 BKN030 OVC044 09/09 A2981 RMK AO2 T00920086
KCKP 191915Z AUTO 31007KT 10SM SCT013 BKN020 OVC046 09/09 A2980 RMK AO2 T00920089
KCKP 191855Z AUTO 33010G15KT 5SM BR BKN013 BKN022 OVC031 09/09 A2980 RMK AO2 T00890086
KCKP 191835Z AUTO 31010G14KT 3SM BR SCT012 BKN022 OVC029 09/09 A2980 RMK AO2 T00870085
KCKP 191815Z AUTO 31010G17KT 2SM RA BKN013 OVC022 09/08 A2979 RMK AO2 T00890082
KCKP 191755Z AUTO 30009G14KT 7SM SCT012 OVC020 10/08 A2977 RMK AO2 T00950082 10100 20082
KCKP 191735Z AUTO 30010G14KT 10SM OVC018 10/08 A2977 RMK AO2 T00960080
KCKP 191715Z AUTO 32008KT 10SM OVC018 10/08 A2975 RMK AO2 T00970081
KCKP 191655Z AUTO 32007G14KT 10SM BKN018 OVC022 10/08 A2975 RMK AO2 T00970082
KCKP 191635Z AUTO 31010KT 10SM BKN016 OVC022 10/08 A2974 RMK AO2 T00990083
KCKP 191615Z AUTO 32011G14KT 10SM OVC016 10/09 A2973 RMK AO2 T00990090
KCKP 191555Z AUTO 33009KT 290V350 10SM BKN015 OVC020 10/09 A2972 RMK AO2 T00990087
KCKP 191535Z AUTO 33012G17KT 10SM BKN012 OVC018 10/09 A2970 RMK AO2 LTG DSNT E T00960089
KCKP 191515Z AUTO 33012G16KT 10SM OVC014 10/09 A2970 RMK AO2 T00980093
KCKP 191455Z AUTO 33008G16KT 5SM BR BKN010 OVC016 09/09 A2970 RMK AO2 T00880088
KCKP 191435Z AUTO 34008G15KT 3SM BR SCT010 BKN017 OVC042 09/09 A2970 RMK AO2 T00850085
KCKP 191415Z AUTO 33009G14KT 4SM BR SCT006 BKN012 OVC019 08/08 A2971 RMK AO2 T00820082
KCKP 191355Z AUTO 32010KT 1 3/4SM BR BKN006 OVC011 08/08 A2970 RMK AO2 T00820082
KCKP 191335Z AUTO 33008KT 1 1/4SM -DZ OVC010 08/08 A2969 RMK AO2 T00820082
KCKP 191315Z AUTO 32007KT 2 1/2SM -DZ OVC010 09/09 A2969 RMK AO2 T00850085
KCKP 191255Z AUTO 31005KT 5SM BR BKN010 OVC016 09/09 A2967 RMK AO2 T00870087
KCKP 191235Z AUTO 32005KT 10SM SCT006 BKN013 OVC020 09/09 A2967 RMK AO2 T00880088
KCKP 191215Z AUTO 35006KT 10SM SCT006 BKN013 OVC020 09/09 A2965 RMK AO2 T00880088
KCKP 191155Z AUTO 35005KT 3SM DZ OVC008 09/09 A2964 RMK AO2 T00880088 10129 20088
KCKP 191135Z AUTO 36008KT 3SM -DZ OVC008 09/09 A2963 RMK AO2 T00900090
KCKP 191115Z AUTO 35007KT 5SM DZ BKN006 OVC011 09/09 A2963 RMK AO2 T00900090
KCKP 191055Z AUTO 35007KT 5SM DZ OVC006 09/09 A2962 RMK AO2 T00920092
KCKP 191035Z AUTO 35007KT 3SM RA OVC004 10/10 A2962 RMK AO2 T00950095
KCKP 191015Z AUTO 35007KT 3SM BR OVC004 10/10 A2961 RMK AO2 T00960096
KCKP 190955Z AUTO 35009KT 2 1/2SM BR OVC004 10/10 A2961 RMK AO2 T01000100
KCKP 190935Z AUTO 36006KT 3SM BR OVC006 11/11 A2960 RMK AO2 T01050105
KCKP 190915Z AUTO 36009KT 5SM BR OVC008 11/11 A2960 RMK AO2 T01100106
KCKP 190855Z AUTO 36009KT 7SM OVC008 12/11 A2960 RMK AO2 T01190113
KCKP 190835Z AUTO 36006KT 7SM OVC008 12/12 A2959 RMK AO2 T01210116
KCKP 190815Z AUTO 36003KT 10SM SCT008 OVC013 13/12 A2959 RMK AO2 T01250120
KCKP 190755Z AUTO 04003KT 10SM BKN010 OVC014 13/12 A2959 RMK AO2 T01250120
KCKP 190735Z AUTO 36004KT 10SM BKN010 OVC014 13/12 A2960 RMK AO2 T01260120
KCKP 190715Z AUTO 00000KT 10SM OVC012 13/12 A2960 RMK AO2 T01270120
KCKP 190655Z AUTO 00000KT 10SM OVC012 13/12 A2960 RMK AO2 T01270119
KCKP 190635Z AUTO 00000KT 10SM OVC010 13/12 A2960 RMK AO2 T01260118
KCKP 190615Z AUTO 36006KT 10SM OVC010 13/12 A2960 RMK AO2 T01270120
KCKP 190555Z AUTO 01005KT 10SM OVC010 13/12 A2960 RMK AO2 T01300122 10175 20130 402350130
KCKP 190535Z AUTO 01006KT 10SM OVC010 13/13 A2960 RMK AO2 T01330126
KCKP 190515Z AUTO 04008KT 10SM OVC008 14/13 A2961 RMK AO2 T01390132
KCKP 190455Z AUTO 32008KT 10SM BKN010 BKN014 OVC085 15/14 A2963 RMK AO2 T01450141
KCKP 190435Z AUTO 31006KT 10SM -DZ SCT017 SCT028 BKN085 15/14 A2962 RMK AO2 T01450140
KCKP 190415Z AUTO 28008KT 10SM -RA SCT013 OVC017 15/14 A2964 RMK AO2 T01510140
KCKP 190355Z AUTO 27006KT 10SM SCT017 OVC028 16/15 A2964 RMK AO2 T01580145
KCKP 190335Z AUTO 30005KT 10SM OVC024 16/14 A2963 RMK AO2 T01580143
KCKP 190315Z AUTO 33005KT 10SM OVC022 16/14 A2962 RMK AO2 LTG DSNT SW T01590144
KCKP 190255Z AUTO 32003KT 10SM SCT019 OVC025 16/15 A2962 RMK AO2 T01600145
KCKP 190235Z AUTO 30004KT 10SM SCT017 BKN023 OVC032 16/14 A2961 RMK AO2 T01600144
KCKP 190215Z AUTO 27005KT 10SM BKN021 OVC027 16/14 A2962 RMK AO2 T01610144
KCKP 190155Z AUTO 00000KT 10SM OVC019 16/14 A2963 RMK AO2 T01630143
KCKP 190135Z AUTO 35005KT 10SM BKN019 OVC037 16/15 A2963 RMK AO2 T01630145
KCKP 190115Z AUTO 34004KT 10SM SCT019 BKN037 OVC047 17/14 A2962 RMK AO2 T01660143
KCKP 190055Z AUTO 33005KT 10SM BKN047 BKN120 17/15 A2960 RMK AO2 LTG DSNT E T01650145
KCKP 190035Z AUTO 00000KT 10SM VCTS SCT120 17/14 A2961 RMK AO2 LTG DSNT SE T01680142
KCKP 190015Z AUTO 34004KT 10SM SCT120 17/15 A2960 RMK AO2 LTG DSNT SE T01700145
KCKP 182355Z AUTO 32004KT 10SM CLR 18/14 A2960 RMK AO2 LTG DSNT SE T01750144 10226 20175
KCKP 182335Z AUTO 31003KT 10SM CLR 18/15 A2960 RMK AO2 T01790148
KCKP 182315Z AUTO 31006KT 10SM CLR 19/15 A2959 RMK AO2 T01850149
KCKP 182255Z AUTO 31008KT 10SM CLR 19/15 A2958 RMK AO2 T01880147
KCKP 182235Z AUTO 30006KT 10SM CLR 19/15 A2958 RMK AO2 T01910149
KCKP 182215Z AUTO 27006KT 10SM CLR 19/15 A2959 RMK AO2 T01900151
KCKP 182155Z AUTO 29007KT 10SM CLR 19/15 A2960 RMK AO2 T01910149
KCKP 182135Z AUTO 30006KT 10SM CLR 19/15 A2961 RMK AO2 T01940149
KCKP 182115Z AUTO 28006KT 10SM CLR 20/15 A2961 RMK AO2 LTG DSNT SE T01970152
KCKP 182055Z AUTO 31007KT 10SM CLR 20/15 A2960 RMK AO2 T02000153
KCKP 182035Z AUTO 28008KT 10SM CLR 20/15 A2962 RMK AO2 T02010154
KCKP 182015Z AUTO 28006KT 10SM CLR 20/15 A2961 RMK AO2 T02010152
KCKP 181955Z AUTO 27007KT 10SM CLR 21/15 A2960 RMK AO2 LTG DSNT SE T02050154
KCKP 181935Z AUTO 26012G16KT 10SM CLR 21/16 A2958 RMK AO2 T02080157
KCKP 181915Z AUTO 26013G18KT 10SM CLR 21/16 A2958 RMK AO2 T02130164
KCKP 181855Z AUTO 24012G15KT 10SM CLR 21/17 A2959 RMK AO2 T02140166
KCKP 181835Z AUTO 26013G21KT 10SM SCT029 22/17 A2956 RMK AO2 LTG DSNT SE T02180165
KCKP 181815Z AUTO 26013G19KT 10SM CLR 22/17 A2955 RMK AO2 T02200167
KCKP 181755Z AUTO 27014G19KT 10SM SCT032 SCT038 23/18 A2955 RMK AO2 T02260176 10235 20168
KCKP 181735Z AUTO 24013G21KT 10SM SCT038 23/17 A2955 RMK AO2 T02290165
KCKP 181715Z AUTO 23013G21KT 10SM SCT040 23/16 A2956 RMK AO2 T02340162
KCKP 181655Z AUTO 21021G24KT 10SM CLR 23/16 A2957 RMK AO2 T02310155
KCKP 181635Z AUTO 21015G22KT 10SM SCT040 SCT046 23/16 A2956 RMK AO2 T02320161
KCKP 181615Z AUTO 20011KT 10SM CLR 23/17 A2955 RMK AO2 T02300165
KCKP 181555Z AUTO 21009G14KT 10SM CLR 22/16 A2954 RMK AO2 T02230158
KCKP 181535Z AUTO 21009G17KT 10SM CLR 22/16 A2953 RMK AO2 T02160158
KCKP 181515Z AUTO 22011G15KT 10SM CLR 21/16 A2954 RMK AO2 T02110158
KCKP 181455Z AUTO 22008KT 10SM CLR 21/17 A2954 RMK AO2 T02080171
KCKP 181435Z AUTO 18005KT 10SM CLR 20/18 A2955 RMK AO2 T01950180
KCKP 181415Z AUTO 20003KT 10SM CLR 18/18 A2954 RMK AO2 T01800179
KCKP 181355Z AUTO 00000KT 10SM CLR 18/18 A2952 RMK AO2 T01800176
KCKP 181335Z AUTO 00000KT 10SM CLR 18/18 A2952 RMK AO2 T01810176
KCKP 181315Z AUTO 00000KT 10SM CLR 18/17 A2954 RMK AO2 T01770171
KCKP 181255Z AUTO 25003KT 10SM CLR 18/17 A2954 RMK AO2 T01780170
KCKP 181235Z AUTO 00000KT 10SM SCT110 18/17 A2951 RMK AO2 T01810169
KCKP 181215Z AUTO 05009KT 10SM SCT110 18/17 A2948 RMK AO2 T01750166
KCKP 181155Z AUTO 09008KT 10SM SCT120 17/17 A2949 RMK AO2 60009 70011 T01670166 10179 20158
KCKP 181135Z AUTO 10007KT 10SM SCT110 17/17 A2951 RMK AO2 T01700167
KCKP 181115Z AUTO 10006KT 10SM BKN110 17/17 A2952 RMK AO2 T01700167
KCKP 181055Z AUTO 11006KT 10SM DZ BKN110 17/17 A2955 RMK AO2 LTG DSNT NE P0001 T01700170
KCKP 181035Z AUTO 14007KT 7SM -RA SCT060 SCT080 SCT120 17/17 A2955 RMK AO2 LTG DSNT E P0001 T01690169
KCKP 181015Z AUTO 11006KT 7SM -VCTSRA SCT043 SCT060 BKN110 17/17 A2957 RMK AO2 LTG DSNT SE P0001 T01710171
KCKP 180955Z AUTO 03005KT 10SM VCTS SCT048 SCT060 BKN090 17/17 A2954 RMK AO2 T01700169
KCKP 180935Z AUTO 00000KT 10SM -RA SCT040 BKN050 OVC070 18/17 A2957 RMK AO2 T01760173
KCKP 180915Z AUTO 26004KT 10SM RA SCT018 SCT029 OVC037 18/18 A2958 RMK AO2 LTG DSNT NE T01790175
KCKP 180855Z AUTO 21005KT 5SM -RA SCT018 BKN028 OVC050 17/17 A2957 RMK AO2 LTG DSNT E P0008 60008 T01710170